sensor_id;sensor_type;location;lat;lon;timestamp;P1;durP1;ratioP1;P2;durP2;ratioP2
8401;SDS011;4238;48.404;9.498;2022-12-10T00:00:41;34.07;;;17.93;;
8401;SDS011;4238;48.404;9.498;2022-12-10T00:03:09;38.60;;;18.90;;
8401;SDS011;4238;48.404;9.498;2022-12-10T00:05:36;34.47;;;19.10;;
8401;SDS011;4238;48.404;9.498;2022-12-10T00:08:03;34.80;;;19.30;;
8401;SDS011;4238;48.404;9.498;2022-12-10T00:10:30;35.03;;;19.97;;
8401;SDS011;4238;48.404;9.498;2022-12-10T00:12:57;36.97;;;20.00;;
8401;SDS011;4238;48.404;9.498;2022-12-10T00:15:24;33.30;;;18.83;;
8401;SDS011;4238;48.404;9.498;2022-12-10T00:17:51;39.40;;;20.43;;
8401;SDS011;4238;48.404;9.498;2022-12-10T00:20:19;35.53;;;18.43;;
8401;SDS011;4238;48.404;9.498;2022-12-10T00:22:46;43.57;;;20.53;;
8401;SDS011;4238;48.404;9.498;2022-12-10T00:25:13;38.00;;;19.33;;
8401;SDS011;4238;48.404;9.498;2022-12-10T00:27:40;35.47;;;17.83;;
8401;SDS011;4238;48.404;9.498;2022-12-10T00:30:07;34.67;;;20.53;;
8401;SDS011;4238;48.404;9.498;2022-12-10T00:32:35;36.10;;;18.83;;
8401;SDS011;4238;48.404;9.498;2022-12-10T00:35:02;34.60;;;18.90;;
8401;SDS011;4238;48.404;9.498;2022-12-10T00:37:30;35.47;;;18.53;;
8401;SDS011;4238;48.404;9.498;2022-12-10T00:39:58;29.00;;;18.53;;
8401;SDS011;4238;48.404;9.498;2022-12-10T00:42:25;34.83;;;17.53;;
8401;SDS011;4238;48.404;9.498;2022-12-10T00:44:52;37.17;;;18.33;;
8401;SDS011;4238;48.404;9.498;2022-12-10T00:47:19;36.07;;;19.13;;
8401;SDS011;4238;48.404;9.498;2022-12-10T00:49:46;35.60;;;18.67;;
8401;SDS011;4238;48.404;9.498;2022-12-10T00:52:13;35.00;;;17.87;;
8401;SDS011;4238;48.404;9.498;2022-12-10T00:54:41;31.43;;;18.13;;
8401;SDS011;4238;48.404;9.498;2022-12-10T00:57:08;34.50;;;19.60;;
8401;SDS011;4238;48.404;9.498;2022-12-10T00:59:35;36.57;;;18.20;;
8401;SDS011;4238;48.404;9.498;2022-12-10T01:02:02;34.00;;;17.80;;
8401;SDS011;4238;48.404;9.498;2022-12-10T01:04:29;32.03;;;17.33;;
8401;SDS011;4238;48.404;9.498;2022-12-10T01:06:56;31.80;;;16.20;;
8401;SDS011;4238;48.404;9.498;2022-12-10T01:09:25;34.63;;;17.93;;
8401;SDS011;4238;48.404;9.498;2022-12-10T01:11:55;30.83;;;18.07;;
8401;SDS011;4238;48.404;9.498;2022-12-10T01:14:25;30.10;;;17.87;;
8401;SDS011;4238;48.404;9.498;2022-12-10T01:16:54;30.87;;;17.50;;
8401;SDS011;4238;48.404;9.498;2022-12-10T01:19:23;33.33;;;18.63;;
8401;SDS011;4238;48.404;9.498;2022-12-10T01:21:50;32.37;;;17.73;;
8401;SDS011;4238;48.404;9.498;2022-12-10T01:24:17;35.70;;;18.77;;
8401;SDS011;4238;48.404;9.498;2022-12-10T01:26:43;35.77;;;19.00;;
8401;SDS011;4238;48.404;9.498;2022-12-10T01:29:12;31.17;;;18.37;;
8401;SDS011;4238;48.404;9.498;2022-12-10T01:31:39;34.77;;;18.73;;
8401;SDS011;4238;48.404;9.498;2022-12-10T01:34:07;34.10;;;18.87;;
8401;SDS011;4238;48.404;9.498;2022-12-10T01:36:37;38.40;;;20.03;;
8401;SDS011;4238;48.404;9.498;2022-12-10T01:39:06;32.73;;;19.67;;
8401;SDS011;4238;48.404;9.498;2022-12-10T01:41:40;32.37;;;18.77;;
8401;SDS011;4238;48.404;9.498;2022-12-10T01:47:10;34.67;;;17.80;;
8401;SDS011;4238;48.404;9.498;2022-12-10T01:49:38;38.83;;;19.57;;
8401;SDS011;4238;48.404;9.498;2022-12-10T01:52:07;33.13;;;18.80;;
8401;SDS011;4238;48.404;9.498;2022-12-10T01:54:38;33.73;;;18.50;;
8401;SDS011;4238;48.404;9.498;2022-12-10T01:57:09;32.77;;;18.33;;
8401;SDS011;4238;48.404;9.498;2022-12-10T01:59:38;30.10;;;18.30;;
8401;SDS011;4238;48.404;9.498;2022-12-10T02:02:08;32.23;;;18.07;;
8401;SDS011;4238;48.404;9.498;2022-12-10T02:04:45;34.07;;;19.13;;
8401;SDS011;4238;48.404;9.498;2022-12-10T02:07:21;35.70;;;20.30;;
8401;SDS011;4238;48.404;9.498;2022-12-10T02:09:52;31.57;;;18.27;;
8401;SDS011;4238;48.404;9.498;2022-12-10T02:12:27;33.23;;;18.60;;
8401;SDS011;4238;48.404;9.498;2022-12-10T02:15:02;35.30;;;19.73;;
8401;SDS011;4238;48.404;9.498;2022-12-10T02:17:34;34.30;;;19.23;;
8401;SDS011;4238;48.404;9.498;2022-12-10T02:20:06;31.63;;;18.73;;
8401;SDS011;4238;48.404;9.498;2022-12-10T02:22:38;29.07;;;16.93;;
8401;SDS011;4238;48.404;9.498;2022-12-10T02:25:11;33.63;;;17.80;;
8401;SDS011;4238;48.404;9.498;2022-12-10T02:27:42;28.70;;;17.53;;
8401;SDS011;4238;48.404;9.498;2022-12-10T02:30:15;32.43;;;19.33;;
8401;SDS011;4238;48.404;9.498;2022-12-10T02:32:43;32.70;;;18.47;;
8401;SDS011;4238;48.404;9.498;2022-12-10T02:35:11;34.53;;;18.90;;
8401;SDS011;4238;48.404;9.498;2022-12-10T02:37:45;32.60;;;18.30;;
8401;SDS011;4238;48.404;9.498;2022-12-10T02:40:16;33.53;;;18.53;;
8401;SDS011;4238;48.404;9.498;2022-12-10T02:42:46;31.77;;;18.50;;
8401;SDS011;4238;48.404;9.498;2022-12-10T02:45:18;30.00;;;17.20;;
8401;SDS011;4238;48.404;9.498;2022-12-10T02:47:47;28.40;;;17.43;;
8401;SDS011;4238;48.404;9.498;2022-12-10T02:50:15;30.20;;;17.73;;
8401;SDS011;4238;48.404;9.498;2022-12-10T02:52:46;29.87;;;17.17;;
8401;SDS011;4238;48.404;9.498;2022-12-10T02:55:13;27.63;;;16.67;;
8401;SDS011;4238;48.404;9.498;2022-12-10T02:57:41;28.90;;;18.23;;
8401;SDS011;4238;48.404;9.498;2022-12-10T03:00:20;29.20;;;15.33;;
8401;SDS011;4238;48.404;9.498;2022-12-10T03:05:45;29.50;;;16.43;;
8401;SDS011;4238;48.404;9.498;2022-12-10T03:08:18;25.60;;;16.33;;
8401;SDS011;4238;48.404;9.498;2022-12-10T03:10:50;26.97;;;16.23;;
8401;SDS011;4238;48.404;9.498;2022-12-10T03:13:21;27.93;;;16.93;;
8401;SDS011;4238;48.404;9.498;2022-12-10T03:15:56;25.90;;;16.10;;
8401;SDS011;4238;48.404;9.498;2022-12-10T03:18:25;27.63;;;16.23;;
8401;SDS011;4238;48.404;9.498;2022-12-10T03:20:55;26.47;;;16.23;;
8401;SDS011;4238;48.404;9.498;2022-12-10T03:23:27;24.53;;;15.27;;
8401;SDS011;4238;48.404;9.498;2022-12-10T03:25:55;25.60;;;15.60;;
8401;SDS011;4238;48.404;9.498;2022-12-10T03:28:23;26.07;;;14.83;;
8401;SDS011;4238;48.404;9.498;2022-12-10T03:30:51;24.97;;;14.73;;
8401;SDS011;4238;48.404;9.498;2022-12-10T03:33:20;22.50;;;14.20;;
8401;SDS011;4238;48.404;9.498;2022-12-10T03:35:47;23.87;;;13.97;;
8401;SDS011;4238;48.404;9.498;2022-12-10T03:38:15;24.83;;;14.17;;
8401;SDS011;4238;48.404;9.498;2022-12-10T03:40:42;24.33;;;14.33;;
8401;SDS011;4238;48.404;9.498;2022-12-10T03:43:11;24.27;;;14.83;;
8401;SDS011;4238;48.404;9.498;2022-12-10T03:45:39;28.07;;;14.77;;
8401;SDS011;4238;48.404;9.498;2022-12-10T03:48:06;23.43;;;14.33;;
8401;SDS011;4238;48.404;9.498;2022-12-10T03:50:34;24.27;;;14.67;;
8401;SDS011;4238;48.404;9.498;2022-12-10T03:53:01;27.40;;;16.17;;
8401;SDS011;4238;48.404;9.498;2022-12-10T03:55:28;27.67;;;15.70;;
8401;SDS011;4238;48.404;9.498;2022-12-10T03:57:55;28.63;;;15.03;;
8401;SDS011;4238;48.404;9.498;2022-12-10T04:00:22;25.20;;;16.53;;
8401;SDS011;4238;48.404;9.498;2022-12-10T04:02:49;27.50;;;18.60;;
8401;SDS011;4238;48.404;9.498;2022-12-10T04:05:16;27.77;;;17.37;;
8401;SDS011;4238;48.404;9.498;2022-12-10T04:07:44;25.13;;;14.93;;
8401;SDS011;4238;48.404;9.498;2022-12-10T04:10:11;22.57;;;14.97;;
8401;SDS011;4238;48.404;9.498;2022-12-10T04:12:38;23.80;;;15.20;;
8401;SDS011;4238;48.404;9.498;2022-12-10T04:15:06;22.93;;;15.03;;
8401;SDS011;4238;48.404;9.498;2022-12-10T04:17:51;23.23;;;13.77;;
8401;SDS011;4238;48.404;9.498;2022-12-10T04:20:18;22.40;;;14.47;;
8401;SDS011;4238;48.404;9.498;2022-12-10T04:23:16;18.63;;;13.23;;
8401;SDS011;4238;48.404;9.498;2022-12-10T04:25:59;21.80;;;14.03;;
8401;SDS011;4238;48.404;9.498;2022-12-10T04:28:43;18.63;;;12.20;;
8401;SDS011;4238;48.404;9.498;2022-12-10T04:31:10;22.00;;;13.40;;
8401;SDS011;4238;48.404;9.498;2022-12-10T04:33:37;23.97;;;14.17;;
8401;SDS011;4238;48.404;9.498;2022-12-10T04:36:04;17.40;;;12.83;;
8401;SDS011;4238;48.404;9.498;2022-12-10T04:38:33;20.07;;;12.60;;
8401;SDS011;4238;48.404;9.498;2022-12-10T04:41:00;17.30;;;12.60;;
8401;SDS011;4238;48.404;9.498;2022-12-10T04:43:27;19.27;;;12.70;;
8401;SDS011;4238;48.404;9.498;2022-12-10T04:45:55;19.80;;;12.60;;
8401;SDS011;4238;48.404;9.498;2022-12-10T04:48:22;21.30;;;13.43;;
8401;SDS011;4238;48.404;9.498;2022-12-10T04:50:48;19.73;;;12.93;;
8401;SDS011;4238;48.404;9.498;2022-12-10T04:53:15;18.43;;;12.90;;
8401;SDS011;4238;48.404;9.498;2022-12-10T04:55:43;22.50;;;12.87;;
8401;SDS011;4238;48.404;9.498;2022-12-10T04:58:10;23.83;;;13.97;;
8401;SDS011;4238;48.404;9.498;2022-12-10T05:00:37;19.07;;;12.97;;
8401;SDS011;4238;48.404;9.498;2022-12-10T05:03:04;20.70;;;13.83;;
8401;SDS011;4238;48.404;9.498;2022-12-10T05:05:33;20.73;;;14.00;;
8401;SDS011;4238;48.404;9.498;2022-12-10T05:08:00;20.23;;;13.90;;
8401;SDS011;4238;48.404;9.498;2022-12-10T05:10:27;18.97;;;13.23;;
8401;SDS011;4238;48.404;9.498;2022-12-10T05:12:55;20.87;;;13.63;;
8401;SDS011;4238;48.404;9.498;2022-12-10T05:15:22;18.63;;;13.30;;
8401;SDS011;4238;48.404;9.498;2022-12-10T05:17:49;21.30;;;13.97;;
8401;SDS011;4238;48.404;9.498;2022-12-10T05:20:16;19.43;;;12.63;;
8401;SDS011;4238;48.404;9.498;2022-12-10T05:22:43;20.10;;;14.50;;
8401;SDS011;4238;48.404;9.498;2022-12-10T05:25:27;19.83;;;14.13;;
8401;SDS011;4238;48.404;9.498;2022-12-10T05:27:55;22.10;;;14.43;;
8401;SDS011;4238;48.404;9.498;2022-12-10T05:30:22;22.97;;;13.93;;
8401;SDS011;4238;48.404;9.498;2022-12-10T05:32:49;18.70;;;12.87;;
8401;SDS011;4238;48.404;9.498;2022-12-10T05:35:16;20.87;;;13.70;;
8401;SDS011;4238;48.404;9.498;2022-12-10T05:37:43;20.07;;;13.97;;
8401;SDS011;4238;48.404;9.498;2022-12-10T05:40:10;18.80;;;13.60;;
8401;SDS011;4238;48.404;9.498;2022-12-10T05:42:38;20.73;;;13.77;;
8401;SDS011;4238;48.404;9.498;2022-12-10T05:45:07;20.23;;;12.53;;
8401;SDS011;4238;48.404;9.498;2022-12-10T05:47:34;18.63;;;13.67;;
8401;SDS011;4238;48.404;9.498;2022-12-10T05:50:01;17.10;;;12.50;;
8401;SDS011;4238;48.404;9.498;2022-12-10T05:52:28;16.57;;;11.97;;
8401;SDS011;4238;48.404;9.498;2022-12-10T05:54:55;17.87;;;12.80;;
8401;SDS011;4238;48.404;9.498;2022-12-10T05:57:22;18.17;;;12.63;;
8401;SDS011;4238;48.404;9.498;2022-12-10T05:59:49;17.80;;;12.60;;
8401;SDS011;4238;48.404;9.498;2022-12-10T06:02:17;21.73;;;13.63;;
8401;SDS011;4238;48.404;9.498;2022-12-10T06:04:44;20.43;;;13.57;;
8401;SDS011;4238;48.404;9.498;2022-12-10T06:07:11;18.63;;;12.97;;
8401;SDS011;4238;48.404;9.498;2022-12-10T06:09:38;19.60;;;12.70;;
8401;SDS011;4238;48.404;9.498;2022-12-10T06:12:05;19.53;;;13.70;;
8401;SDS011;4238;48.404;9.498;2022-12-10T06:14:32;20.80;;;14.33;;
8401;SDS011;4238;48.404;9.498;2022-12-10T06:16:59;18.37;;;13.47;;
8401;SDS011;4238;48.404;9.498;2022-12-10T06:19:27;22.03;;;14.30;;
8401;SDS011;4238;48.404;9.498;2022-12-10T06:21:54;18.27;;;12.97;;
8401;SDS011;4238;48.404;9.498;2022-12-10T06:24:21;20.97;;;12.83;;
8401;SDS011;4238;48.404;9.498;2022-12-10T06:26:48;17.40;;;12.57;;
8401;SDS011;4238;48.404;9.498;2022-12-10T06:29:14;19.97;;;12.80;;
8401;SDS011;4238;48.404;9.498;2022-12-10T06:31:41;16.03;;;11.93;;
8401;SDS011;4238;48.404;9.498;2022-12-10T06:34:08;17.30;;;11.33;;
8401;SDS011;4238;48.404;9.498;2022-12-10T06:36:36;15.20;;;11.17;;
8401;SDS011;4238;48.404;9.498;2022-12-10T06:39:03;17.07;;;11.70;;
8401;SDS011;4238;48.404;9.498;2022-12-10T06:41:31;15.33;;;10.70;;
8401;SDS011;4238;48.404;9.498;2022-12-10T06:43:57;14.63;;;10.47;;
8401;SDS011;4238;48.404;9.498;2022-12-10T06:46:25;15.53;;;10.53;;
8401;SDS011;4238;48.404;9.498;2022-12-10T06:48:53;15.30;;;10.87;;
8401;SDS011;4238;48.404;9.498;2022-12-10T06:51:20;13.43;;;10.27;;
8401;SDS011;4238;48.404;9.498;2022-12-10T06:53:48;15.53;;;10.87;;
8401;SDS011;4238;48.404;9.498;2022-12-10T06:56:15;12.70;;;9.37;;
8401;SDS011;4238;48.404;9.498;2022-12-10T06:58:43;13.90;;;10.13;;
8401;SDS011;4238;48.404;9.498;2022-12-10T07:01:11;15.63;;;11.43;;
8401;SDS011;4238;48.404;9.498;2022-12-10T07:03:40;15.67;;;11.43;;
8401;SDS011;4238;48.404;9.498;2022-12-10T07:06:08;15.87;;;11.47;;
8401;SDS011;4238;48.404;9.498;2022-12-10T07:08:36;16.65;;;13.95;;
8401;SDS011;4238;48.404;9.498;2022-12-10T07:11:05;16.30;;;11.93;;
8401;SDS011;4238;48.404;9.498;2022-12-10T07:13:33;21.03;;;13.57;;
8401;SDS011;4238;48.404;9.498;2022-12-10T07:16:00;18.23;;;13.00;;
8401;SDS011;4238;48.404;9.498;2022-12-10T07:18:28;18.03;;;11.87;;
8401;SDS011;4238;48.404;9.498;2022-12-10T07:20:55;15.53;;;10.67;;
8401;SDS011;4238;48.404;9.498;2022-12-10T07:23:22;18.47;;;13.10;;
8401;SDS011;4238;48.404;9.498;2022-12-10T07:25:49;22.40;;;15.40;;
8401;SDS011;4238;48.404;9.498;2022-12-10T07:28:17;13.70;;;11.00;;
8401;SDS011;4238;48.404;9.498;2022-12-10T07:30:44;15.70;;;11.13;;
8401;SDS011;4238;48.404;9.498;2022-12-10T07:33:11;12.00;;;9.60;;
8401;SDS011;4238;48.404;9.498;2022-12-10T07:35:38;22.93;;;13.93;;
8401;SDS011;4238;48.404;9.498;2022-12-10T07:38:05;94.33;;;38.80;;
8401;SDS011;4238;48.404;9.498;2022-12-10T07:40:32;50.33;;;26.23;;
8401;SDS011;4238;48.404;9.498;2022-12-10T07:42:59;15.33;;;10.97;;
8401;SDS011;4238;48.404;9.498;2022-12-10T07:45:28;12.07;;;9.10;;
8401;SDS011;4238;48.404;9.498;2022-12-10T07:47:55;11.60;;;8.23;;
8401;SDS011;4238;48.404;9.498;2022-12-10T07:50:21;12.30;;;9.00;;
8401;SDS011;4238;48.404;9.498;2022-12-10T07:52:48;13.27;;;10.03;;
8401;SDS011;4238;48.404;9.498;2022-12-10T07:55:15;10.93;;;9.40;;
8401;SDS011;4238;48.404;9.498;2022-12-10T07:57:42;12.50;;;9.03;;
8401;SDS011;4238;48.404;9.498;2022-12-10T08:00:09;14.20;;;9.97;;
8401;SDS011;4238;48.404;9.498;2022-12-10T08:02:39;12.43;;;9.00;;
8401;SDS011;4238;48.404;9.498;2022-12-10T08:05:06;12.97;;;9.27;;
8401;SDS011;4238;48.404;9.498;2022-12-10T08:07:33;10.93;;;9.13;;
8401;SDS011;4238;48.404;9.498;2022-12-10T08:10:00;9.83;;;8.00;;
8401;SDS011;4238;48.404;9.498;2022-12-10T08:12:27;9.37;;;8.07;;
8401;SDS011;4238;48.404;9.498;2022-12-10T08:14:54;10.40;;;8.97;;
8401;SDS011;4238;48.404;9.498;2022-12-10T08:17:21;10.17;;;8.37;;
8401;SDS011;4238;48.404;9.498;2022-12-10T08:19:49;9.20;;;7.90;;
8401;SDS011;4238;48.404;9.498;2022-12-10T08:22:16;12.03;;;8.83;;
8401;SDS011;4238;48.404;9.498;2022-12-10T08:24:43;9.10;;;7.60;;
8401;SDS011;4238;48.404;9.498;2022-12-10T08:27:10;10.00;;;7.50;;
8401;SDS011;4238;48.404;9.498;2022-12-10T08:29:37;9.43;;;7.23;;
8401;SDS011;4238;48.404;9.498;2022-12-10T08:32:05;10.20;;;8.20;;
8401;SDS011;4238;48.404;9.498;2022-12-10T08:34:31;9.70;;;8.00;;
8401;SDS011;4238;48.404;9.498;2022-12-10T08:37:00;9.50;;;7.63;;
8401;SDS011;4238;48.404;9.498;2022-12-10T08:39:27;12.23;;;8.13;;
8401;SDS011;4238;48.404;9.498;2022-12-10T08:41:53;11.80;;;8.53;;
8401;SDS011;4238;48.404;9.498;2022-12-10T08:44:20;10.47;;;8.10;;
8401;SDS011;4238;48.404;9.498;2022-12-10T08:46:47;12.27;;;7.97;;
8401;SDS011;4238;48.404;9.498;2022-12-10T08:49:14;10.33;;;7.73;;
8401;SDS011;4238;48.404;9.498;2022-12-10T08:51:41;16.30;;;10.83;;
8401;SDS011;4238;48.404;9.498;2022-12-10T08:54:09;12.07;;;8.67;;
8401;SDS011;4238;48.404;9.498;2022-12-10T08:56:36;10.97;;;8.97;;
8401;SDS011;4238;48.404;9.498;2022-12-10T08:59:05;16.37;;;11.00;;
8401;SDS011;4238;48.404;9.498;2022-12-10T09:01:32;11.70;;;9.67;;
8401;SDS011;4238;48.404;9.498;2022-12-10T09:03:59;12.20;;;9.43;;
8401;SDS011;4238;48.404;9.498;2022-12-10T09:06:26;11.00;;;9.60;;
8401;SDS011;4238;48.404;9.498;2022-12-10T09:08:54;14.17;;;9.33;;
8401;SDS011;4238;48.404;9.498;2022-12-10T09:11:24;13.67;;;9.23;;
8401;SDS011;4238;48.404;9.498;2022-12-10T09:13:52;14.33;;;10.10;;
8401;SDS011;4238;48.404;9.498;2022-12-10T09:16:20;12.57;;;9.20;;
8401;SDS011;4238;48.404;9.498;2022-12-10T09:18:47;10.73;;;8.40;;
8401;SDS011;4238;48.404;9.498;2022-12-10T09:21:15;9.50;;;7.27;;
8401;SDS011;4238;48.404;9.498;2022-12-10T09:23:43;11.50;;;7.77;;
8401;SDS011;4238;48.404;9.498;2022-12-10T09:26:11;11.87;;;9.37;;
8401;SDS011;4238;48.404;9.498;2022-12-10T09:28:40;14.40;;;10.40;;
8401;SDS011;4238;48.404;9.498;2022-12-10T09:31:08;12.63;;;9.27;;
8401;SDS011;4238;48.404;9.498;2022-12-10T09:33:36;12.30;;;9.57;;
8401;SDS011;4238;48.404;9.498;2022-12-10T09:36:03;10.87;;;9.23;;
8401;SDS011;4238;48.404;9.498;2022-12-10T09:38:32;11.40;;;8.77;;
8401;SDS011;4238;48.404;9.498;2022-12-10T09:41:00;11.63;;;8.83;;
8401;SDS011;4238;48.404;9.498;2022-12-10T09:43:32;12.00;;;10.07;;
8401;SDS011;4238;48.404;9.498;2022-12-10T09:46:13;16.33;;;11.93;;
8401;SDS011;4238;48.404;9.498;2022-12-10T09:48:49;13.70;;;9.93;;
8401;SDS011;4238;48.404;9.498;2022-12-10T09:51:25;9.67;;;8.13;;
8401;SDS011;4238;48.404;9.498;2022-12-10T09:53:56;13.33;;;9.67;;
8401;SDS011;4238;48.404;9.498;2022-12-10T09:56:26;10.90;;;7.90;;
8401;SDS011;4238;48.404;9.498;2022-12-10T09:58:57;10.37;;;7.50;;
8401;SDS011;4238;48.404;9.498;2022-12-10T10:01:30;10.23;;;7.90;;
8401;SDS011;4238;48.404;9.498;2022-12-10T10:03:59;7.83;;;6.57;;
8401;SDS011;4238;48.404;9.498;2022-12-10T10:06:26;9.73;;;6.57;;
8401;SDS011;4238;48.404;9.498;2022-12-10T10:08:55;9.40;;;7.63;;
8401;SDS011;4238;48.404;9.498;2022-12-10T10:11:27;25.00;;;15.83;;
8401;SDS011;4238;48.404;9.498;2022-12-10T10:13:58;13.70;;;9.10;;
8401;SDS011;4238;48.404;9.498;2022-12-10T10:16:28;12.23;;;8.90;;
8401;SDS011;4238;48.404;9.498;2022-12-10T10:19:01;11.50;;;8.40;;
8401;SDS011;4238;48.404;9.498;2022-12-10T10:21:32;13.10;;;9.00;;
8401;SDS011;4238;48.404;9.498;2022-12-10T10:24:02;10.80;;;8.30;;
8401;SDS011;4238;48.404;9.498;2022-12-10T10:26:29;11.43;;;9.07;;
8401;SDS011;4238;48.404;9.498;2022-12-10T10:29:00;10.83;;;8.60;;
8401;SDS011;4238;48.404;9.498;2022-12-10T10:31:31;12.07;;;8.50;;
8401;SDS011;4238;48.404;9.498;2022-12-10T10:34:01;11.67;;;8.80;;
8401;SDS011;4238;48.404;9.498;2022-12-10T10:36:31;12.50;;;9.50;;
8401;SDS011;4238;48.404;9.498;2022-12-10T10:39:07;14.07;;;9.90;;
8401;SDS011;4238;48.404;9.498;2022-12-10T10:41:36;14.17;;;10.13;;
8401;SDS011;4238;48.404;9.498;2022-12-10T10:44:11;11.70;;;9.77;;
8401;SDS011;4238;48.404;9.498;2022-12-10T10:46:40;14.70;;;9.73;;
8401;SDS011;4238;48.404;9.498;2022-12-10T10:49:19;15.73;;;10.07;;
8401;SDS011;4238;48.404;9.498;2022-12-10T10:51:50;14.50;;;10.57;;
8401;SDS011;4238;48.404;9.498;2022-12-10T10:54:32;14.07;;;10.00;;
8401;SDS011;4238;48.404;9.498;2022-12-10T10:57:01;13.67;;;10.20;;
8401;SDS011;4238;48.404;9.498;2022-12-10T10:59:32;13.80;;;10.97;;
8401;SDS011;4238;48.404;9.498;2022-12-10T11:02:04;12.90;;;10.63;;
8401;SDS011;4238;48.404;9.498;2022-12-10T11:04:45;15.27;;;11.10;;
8401;SDS011;4238;48.404;9.498;2022-12-10T11:07:19;20.47;;;13.73;;
8401;SDS011;4238;48.404;9.498;2022-12-10T11:09:48;15.70;;;11.53;;
8401;SDS011;4238;48.404;9.498;2022-12-10T11:12:23;15.03;;;11.43;;
8401;SDS011;4238;48.404;9.498;2022-12-10T11:14:57;16.77;;;11.83;;
8401;SDS011;4238;48.404;9.498;2022-12-10T11:17:24;19.30;;;13.97;;
8401;SDS011;4238;48.404;9.498;2022-12-10T11:19:54;15.47;;;12.37;;
8401;SDS011;4238;48.404;9.498;2022-12-10T11:22:23;16.37;;;11.33;;
8401;SDS011;4238;48.404;9.498;2022-12-10T11:24:52;16.97;;;12.53;;
8401;SDS011;4238;48.404;9.498;2022-12-10T11:27:25;17.60;;;13.47;;
8401;SDS011;4238;48.404;9.498;2022-12-10T11:30:04;16.70;;;13.00;;
8401;SDS011;4238;48.404;9.498;2022-12-10T11:32:45;15.60;;;13.07;;
8401;SDS011;4238;48.404;9.498;2022-12-10T11:35:26;16.03;;;13.00;;
8401;SDS011;4238;48.404;9.498;2022-12-10T11:38:03;18.80;;;13.73;;
8401;SDS011;4238;48.404;9.498;2022-12-10T11:40:40;17.77;;;13.33;;
8401;SDS011;4238;48.404;9.498;2022-12-10T11:43:24;15.50;;;11.80;;
8401;SDS011;4238;48.404;9.498;2022-12-10T11:46:10;17.00;;;13.30;;
8401;SDS011;4238;48.404;9.498;2022-12-10T11:48:49;18.13;;;13.03;;
8401;SDS011;4238;48.404;9.498;2022-12-10T11:51:29;21.70;;;15.03;;
8401;SDS011;4238;48.404;9.498;2022-12-10T11:54:06;22.73;;;16.60;;
8401;SDS011;4238;48.404;9.498;2022-12-10T11:56:41;19.43;;;14.23;;
8401;SDS011;4238;48.404;9.498;2022-12-10T11:59:14;16.57;;;12.97;;
8401;SDS011;4238;48.404;9.498;2022-12-10T12:01:51;13.13;;;11.27;;
8401;SDS011;4238;48.404;9.498;2022-12-10T12:04:44;17.60;;;12.30;;
8401;SDS011;4238;48.404;9.498;2022-12-10T12:07:25;14.27;;;11.20;;
8401;SDS011;4238;48.404;9.498;2022-12-10T12:10:10;16.83;;;12.40;;
8401;SDS011;4238;48.404;9.498;2022-12-10T12:12:57;15.70;;;13.27;;
8401;SDS011;4238;48.404;9.498;2022-12-10T12:15:26;14.77;;;12.30;;
8401;SDS011;4238;48.404;9.498;2022-12-10T12:17:57;15.87;;;11.63;;
8401;SDS011;4238;48.404;9.498;2022-12-10T12:20:30;14.43;;;11.67;;
8401;SDS011;4238;48.404;9.498;2022-12-10T12:23:00;14.67;;;11.63;;
8401;SDS011;4238;48.404;9.498;2022-12-10T12:25:34;13.87;;;11.40;;
8401;SDS011;4238;48.404;9.498;2022-12-10T12:28:05;17.37;;;12.90;;
8401;SDS011;4238;48.404;9.498;2022-12-10T12:30:37;15.27;;;12.63;;
8401;SDS011;4238;48.404;9.498;2022-12-10T12:33:10;15.97;;;12.43;;
8401;SDS011;4238;48.404;9.498;2022-12-10T12:35:40;14.77;;;11.77;;
8401;SDS011;4238;48.404;9.498;2022-12-10T12:38:17;18.23;;;13.33;;
8401;SDS011;4238;48.404;9.498;2022-12-10T12:40:51;13.27;;;11.20;;
8401;SDS011;4238;48.404;9.498;2022-12-10T12:43:24;17.07;;;12.70;;
8401;SDS011;4238;48.404;9.498;2022-12-10T12:45:57;16.20;;;12.80;;
8401;SDS011;4238;48.404;9.498;2022-12-10T12:48:26;15.93;;;11.57;;
8401;SDS011;4238;48.404;9.498;2022-12-10T12:51:00;16.63;;;12.17;;
8401;SDS011;4238;48.404;9.498;2022-12-10T12:53:29;14.83;;;11.47;;
8401;SDS011;4238;48.404;9.498;2022-12-10T12:55:58;14.67;;;11.17;;
8401;SDS011;4238;48.404;9.498;2022-12-10T12:58:33;12.67;;;10.43;;
8401;SDS011;4238;48.404;9.498;2022-12-10T13:01:08;12.37;;;10.57;;
8401;SDS011;4238;48.404;9.498;2022-12-10T13:03:44;13.30;;;10.97;;
8401;SDS011;4238;48.404;9.498;2022-12-10T13:06:16;18.43;;;12.27;;
8401;SDS011;4238;48.404;9.498;2022-12-10T13:08:48;13.17;;;11.03;;
8401;SDS011;4238;48.404;9.498;2022-12-10T13:11:29;14.33;;;10.80;;
8401;SDS011;4238;48.404;9.498;2022-12-10T13:14:15;18.47;;;12.47;;
8401;SDS011;4238;48.404;9.498;2022-12-10T13:17:05;34.23;;;21.33;;
8401;SDS011;4238;48.404;9.498;2022-12-10T13:19:51;24.13;;;16.40;;
8401;SDS011;4238;48.404;9.498;2022-12-10T13:25:11;13.97;;;12.40;;
8401;SDS011;4238;48.404;9.498;2022-12-10T13:27:40;16.37;;;12.73;;
8401;SDS011;4238;48.404;9.498;2022-12-10T13:30:28;21.17;;;16.27;;
8401;SDS011;4238;48.404;9.498;2022-12-10T13:33:03;14.03;;;11.43;;
8401;SDS011;4238;48.404;9.498;2022-12-10T13:35:48;18.50;;;13.27;;
8401;SDS011;4238;48.404;9.498;2022-12-10T13:38:21;21.80;;;16.63;;
8401;SDS011;4238;48.404;9.498;2022-12-10T13:41:00;17.50;;;13.77;;
8401;SDS011;4238;48.404;9.498;2022-12-10T13:43:52;16.27;;;12.10;;
8401;SDS011;4238;48.404;9.498;2022-12-10T13:46:52;15.90;;;12.03;;
8401;SDS011;4238;48.404;9.498;2022-12-10T13:49:22;17.23;;;11.73;;
8401;SDS011;4238;48.404;9.498;2022-12-10T13:51:54;20.10;;;14.53;;
8401;SDS011;4238;48.404;9.498;2022-12-10T13:54:28;16.83;;;12.33;;
8401;SDS011;4238;48.404;9.498;2022-12-10T13:57:16;16.30;;;13.00;;
8401;SDS011;4238;48.404;9.498;2022-12-10T13:59:55;16.83;;;12.33;;
8401;SDS011;4238;48.404;9.498;2022-12-10T14:02:35;17.10;;;10.83;;
8401;SDS011;4238;48.404;9.498;2022-12-10T14:05:13;15.77;;;12.10;;
8401;SDS011;4238;48.404;9.498;2022-12-10T14:07:52;18.03;;;12.07;;
8401;SDS011;4238;48.404;9.498;2022-12-10T14:10:23;15.70;;;11.40;;
8401;SDS011;4238;48.404;9.498;2022-12-10T14:12:54;15.97;;;11.63;;
8401;SDS011;4238;48.404;9.498;2022-12-10T14:15:22;16.73;;;11.90;;
8401;SDS011;4238;48.404;9.498;2022-12-10T14:17:51;17.30;;;12.07;;
8401;SDS011;4238;48.404;9.498;2022-12-10T14:20:26;13.90;;;11.10;;
8401;SDS011;4238;48.404;9.498;2022-12-10T14:23:02;17.17;;;13.27;;
8401;SDS011;4238;48.404;9.498;2022-12-10T14:25:45;17.23;;;13.00;;
8401;SDS011;4238;48.404;9.498;2022-12-10T14:28:14;16.17;;;12.10;;
8401;SDS011;4238;48.404;9.498;2022-12-10T14:30:43;16.70;;;12.10;;
8401;SDS011;4238;48.404;9.498;2022-12-10T14:35:39;14.57;;;11.70;;
8401;SDS011;4238;48.404;9.498;2022-12-10T14:38:14;17.57;;;12.93;;
8401;SDS011;4238;48.404;9.498;2022-12-10T14:40:45;16.73;;;12.73;;
8401;SDS011;4238;48.404;9.498;2022-12-10T14:43:13;17.97;;;12.53;;
8401;SDS011;4238;48.404;9.498;2022-12-10T14:45:44;17.80;;;13.47;;
8401;SDS011;4238;48.404;9.498;2022-12-10T14:48:13;22.70;;;16.33;;
8401;SDS011;4238;48.404;9.498;2022-12-10T14:50:41;19.33;;;15.53;;
8401;SDS011;4238;48.404;9.498;2022-12-10T14:53:11;20.97;;;14.70;;
8401;SDS011;4238;48.404;9.498;2022-12-10T14:55:42;18.57;;;13.00;;
8401;SDS011;4238;48.404;9.498;2022-12-10T14:58:11;18.57;;;13.80;;
8401;SDS011;4238;48.404;9.498;2022-12-10T15:00:42;20.33;;;15.33;;
8401;SDS011;4238;48.404;9.498;2022-12-10T15:03:10;18.77;;;14.53;;
8401;SDS011;4238;48.404;9.498;2022-12-10T15:05:42;18.87;;;14.40;;
8401;SDS011;4238;48.404;9.498;2022-12-10T15:08:14;19.83;;;14.47;;
8401;SDS011;4238;48.404;9.498;2022-12-10T15:10:43;17.93;;;13.60;;
8401;SDS011;4238;48.404;9.498;2022-12-10T15:13:16;21.60;;;14.47;;
8401;SDS011;4238;48.404;9.498;2022-12-10T15:15:47;24.30;;;16.20;;
8401;SDS011;4238;48.404;9.498;2022-12-10T15:18:28;23.27;;;15.47;;
8401;SDS011;4238;48.404;9.498;2022-12-10T15:21:03;20.07;;;13.83;;